Box Springs, California
Current Conditions -  °F | °C
As of 3:53 PM on Sunday 21 Dec 2014 (Local Time) from KRAL Reporting Station
Clear Clear  
Wind Chill: 64°   Ceiling: Unl
Heat Index: 64°   Visibility: 7mi
Dew Point: 49°   Wind: 3mph
Humidity: 58%   Direction: 270°W
Pressure: 30.05"   Gusts: NA
Location:  33.9841°N, 117.329°W
Report Text: KRAL 212353Z 27003KT 7SM CLR 18/09 A3005 RMK AO2 SLP166 T01780094 10194 20128 55009
Loading
Personal Weather Stations






























Interactive Weather Map New forecast layout! Learn more

10-Day Weather Forecast

Advertisements
Track Severe Weather on mobile